Argenta, Texas
Current Conditions -  °F | °C
As of 6:35 AM on Monday 26 Jan 2015 (Local Time) from KBEA Reporting Station
Clear Clear  
Wind Chill:   Ceiling: Unl
Heat Index:   Visibility: 10mi
Dew Point:   Wind: 8mph
Humidity: 67%   Direction: 300°WNW
Pressure: 30.25"   Gusts: NA
Location:  28.0654°N, 97.7489°W
Report Text: KBEA 261235Z AUTO 30007KT 10SM CLR 09/03 A3025 RMK AO2 T00860027
Loading
Personal Weather Stations






























Interactive Weather Map New forecast layout! Learn more

10-Day Weather Forecast

Advertisements
Track Severe Weather on mobile